Bluewell, West Virginia
Current Conditions -  °F | °C
As of 6:52 PM on Wednesday 22 Oct 2014 (Local Time) from KBLF Reporting Station
Overcast Overcast  
Wind Chill: 41°   Ceiling: 800
Heat Index: 44°   Visibility: 10mi
Dew Point: 39°   Wind: 6mph
Humidity: 82%   Direction: 340°NNW
Pressure: 30.16"   Gusts: NA
Location:  37.2994°N, 81.226°W
Report Text: KBLF 222252Z AUTO 34005KT 10SM OVC008 07/04 A3016 RMK AO2 CIG 005V011 SLP214 T00670039
Loading
Personal Weather Stations






























Interactive Weather Map New forecast layout! Learn more

10-Day Weather Forecast

Advertisements
Track Severe Weather on mobile